Weather at Fothergill Airport

Public forecast

Using degrees Celsius for public forecast. Weather courtesy of forecast.io.

Closest aviation weather report (METAR) to Fothergill Airport

Report is more than 6 hours old.

Closest report is Kariba International Airport, 17.0 nm (31.6 km) NE. Retrieved 2020/10/29 12:00 UTC (3 months ago):

FVKB 291200Z 10010KT CAVOK 37/13 Q1011

Closest aviation forecast (TAF) to Fothergill Airport

Forecast is more than 12 hours old.

Closest forecast is Kariba International Airport, 17.0 nm (31.6 km) NE. Retrieved 2018/08/24 06:00 UTC (2 years ago):

TAF FVKB 240400Z 2406/2416 27005KT CAVOK